Time;durP1;ratioP1;P1;durP2;ratioP2;P2;SDS_P1;SDS_P2;PMS_P1;PMS_P2;Temp;Humidity;BMP_temperature;BMP_pressure;BME280_temperature;BME280_humidity;BME280_pressure;Samples;Min_cycle;Max_cycle;Signal;HPM_P1;HPM_P2
2023/08/14 00:00:23;;;;;;;8.73;6.40;;;15.80;99.90;;;;;;5068941;28;20051;-80
2023/08/14 00:02:49;;;;;;;9.50;7.63;;;15.80;99.90;;;;;;5070056;28;20392;-79
2023/08/14 00:05:15;;;;;;;3.25;2.72;;;15.80;99.90;;;;;;5070357;28;20522;-81
2023/08/14 00:07:41;;;;;;;4.38;3.92;;;15.70;99.90;;;;;;5069252;28;20048;-82
2023/08/14 00:10:06;;;;;;;3.50;2.47;;;15.70;99.90;;;;;;5061292;28;20043;-81
2023/08/14 00:12:32;;;;;;;6.25;2.08;;;15.70;99.90;;;;;;5069634;28;20147;-80
2023/08/14 00:14:58;;;;;;;2.58;1.83;;;15.60;99.90;;;;;;5068771;28;20507;-80
2023/08/14 00:17:23;;;;;;;3.47;1.67;;;15.90;99.90;;;;;;5070280;28;20044;-80
2023/08/14 00:19:49;;;;;;;3.38;1.60;;;15.60;99.90;;;;;;5067561;28;20044;-80
2023/08/14 00:22:16;;;;;;;2.72;1.05;;;15.60;99.90;;;;;;5069687;28;20032;-80
2023/08/14 00:24:41;;;;;;;10.23;1.80;;;15.60;99.90;;;;;;5068283;28;20091;-80
2023/08/14 00:27:07;;;;;;;2.25;1.20;;;15.50;99.90;;;;;;5069264;28;20068;-80
2023/08/14 00:29:33;;;;;;;1.77;1.67;;;15.60;99.90;;;;;;5068213;28;20059;-80
2023/08/14 00:31:58;;;;;;;2.88;1.48;;;16.50;99.90;;;;;;5067818;28;20084;-82
2023/08/14 00:34:24;;;;;;;2.90;1.40;;;15.50;99.90;;;;;;5070007;28;20046;-81
2023/08/14 00:36:49;;;;;;;1.70;1.23;;;15.50;99.90;;;;;;5068609;28;20041;-80
2023/08/14 00:39:15;;;;;;;4.65;1.77;;;15.50;99.90;;;;;;5070145;28;20064;-81
2023/08/14 00:41:40;;;;;;;1.77;1.65;;;15.40;99.90;;;;;;5069685;28;20491;-79
2023/08/14 00:44:06;;;;;;;5.93;1.52;;;15.50;99.90;;;;;;5070048;28;20260;-79
2023/08/14 00:46:32;;;;;;;3.70;1.60;;;15.40;99.90;;;;;;5069112;28;20043;-78
2023/08/14 00:48:58;;;;;;;3.25;1.90;;;15.50;99.90;;;;;;5076417;28;20048;-80
2023/08/14 00:51:25;;;;;;;2.80;1.73;;;15.40;99.90;;;;;;5079351;28;20032;-80
2023/08/14 00:53:52;;;;;;;3.38;1.63;;;15.30;99.90;;;;;;5069839;28;20535;-80
2023/08/14 00:56:19;;;;;;;4.93;1.75;;;15.30;99.90;;;;;;5069108;28;20040;-79
2023/08/14 00:58:46;;;;;;;4.32;1.70;;;15.30;99.90;;;;;;5072345;28;20033;-80
2023/08/14 01:01:12;;;;;;;2.65;1.80;;;15.30;99.90;;;;;;5058217;28;20075;-80
2023/08/14 01:03:38;;;;;;;2.35;1.60;;;16.40;99.90;;;;;;5072729;28;20244;-79
2023/08/14 01:06:04;;;;;;;4.95;2.00;;;15.20;99.90;;;;;;5073983;28;20033;-81
2023/08/14 01:08:31;;;;;;;3.67;1.83;;;15.20;99.90;;;;;;5073512;28;20121;-83
2023/08/14 01:11:12;;;;;;;5.43;2.05;;;15.10;99.90;;;;;;5073895;28;20079;-82
2023/08/14 01:13:49;;;;;;;4.72;2.22;;;15.10;99.90;;;;;;5074340;28;20110;-78
2023/08/14 01:16:24;;;;;;;3.88;1.85;;;15.20;99.90;;;;;;5074990;28;20040;-81
2023/08/14 01:18:52;;;;;;;2.58;2.38;;;15.10;99.90;;;;;;5073490;28;20051;-80
2023/08/14 01:21:27;;;;;;;3.13;2.00;;;16.10;99.90;;;;;;5082653;28;20052;-79
2023/08/14 01:24:18;;;;;;;2.55;1.60;;;15.10;99.90;;;;;;5073238;28;20500;-79
2023/08/14 01:26:44;;;;;;;1.98;1.70;;;15.20;99.90;;;;;;5068223;28;20051;-79
2023/08/14 01:29:10;;;;;;;3.83;2.13;;;15.20;99.90;;;;;;5072640;28;20396;-81
2023/08/14 01:31:35;;;;;;;3.10;1.83;;;16.00;99.90;;;;;;5072616;28;20047;-79
2023/08/14 01:34:02;;;;;;;3.92;1.85;;;15.60;99.90;;;;;;5074319;28;20504;-80
2023/08/14 01:36:38;;;;;;;2.20;2.00;;;15.20;99.90;;;;;;5072925;28;20648;-81
2023/08/14 01:39:08;;;;;;;2.10;1.88;;;15.20;99.90;;;;;;5060714;28;20067;-80
2023/08/14 01:41:53;;;;;;;2.70;1.55;;;15.20;99.90;;;;;;5054382;28;20043;-82
2023/08/14 01:44:22;;;;;;;13.75;7.80;;;15.20;99.90;;;;;;5066555;28;20051;-82
2023/08/14 01:46:49;;;;;;;13.98;12.32;;;15.60;99.90;;;;;;5077019;28;20091;-80
2023/08/14 01:49:18;;;;;;;4.57;4.18;;;15.20;99.90;;;;;;5064146;28;20041;-79
2023/08/14 01:51:46;;;;;;;3.53;3.13;;;15.20;99.90;;;;;;5054085;28;20085;-80
2023/08/14 01:54:11;;;;;;;3.17;2.17;;;15.70;99.90;;;;;;5071419;28;20056;-80
2023/08/14 01:56:37;;;;;;;2.83;2.00;;;15.20;99.90;;;;;;5070497;28;20044;-79
2023/08/14 01:59:03;;;;;;;2.92;2.00;;;15.20;99.90;;;;;;5071467;28;20575;-81
2023/08/14 02:01:28;;;;;;;3.28;2.15;;;15.20;99.90;;;;;;5071032;28;20082;-81
2023/08/14 02:03:54;;;;;;;2.20;1.83;;;15.20;99.90;;;;;;5071303;28;20037;-80
2023/08/14 02:06:19;;;;;;;3.47;2.25;;;15.20;99.90;;;;;;5072124;28;20033;-81
2023/08/14 02:08:45;;;;;;;2.33;2.10;;;15.10;99.90;;;;;;5069366;28;20045;-80
2023/08/14 02:11:11;;;;;;;4.45;2.15;;;14.40;99.90;;;;;;5071533;28;20040;-80
2023/08/14 02:13:36;;;;;;;9.57;2.58;;;15.10;99.90;;;;;;5070621;28;20036;-79
2023/08/14 02:16:03;;;;;;;3.42;2.67;;;15.10;99.90;;;;;;5069929;28;20040;-80
2023/08/14 02:18:29;;;;;;;2.83;2.53;;;15.10;99.90;;;;;;5071466;28;20036;-81
2023/08/14 02:20:54;;;;;;;4.95;2.63;;;15.60;99.90;;;;;;5070390;28;20622;-80
2023/08/14 02:23:20;;;;;;;3.85;2.60;;;15.10;99.90;;;;;;5071103;28;20041;-80
2023/08/14 02:25:46;;;;;;;3.47;2.72;;;15.10;99.90;;;;;;5071028;28;20132;-79
2023/08/14 02:28:12;;;;;;;3.25;2.47;;;15.10;99.90;;;;;;5069685;28;20060;-80
2023/08/14 02:30:41;;;;;;;4.00;3.13;;;15.10;99.90;;;;;;5073983;28;20075;-79
2023/08/14 02:33:07;;;;;;;3.38;3.08;;;15.10;99.90;;;;;;5079373;28;20083;-80
2023/08/14 02:35:34;;;;;;;4.95;3.55;;;15.10;99.90;;;;;;5074060;28;20032;-79
2023/08/14 02:38:04;;;;;;;8.00;3.28;;;15.60;99.90;;;;;;5070207;28;20124;-79
2023/08/14 02:40:30;;;;;;;4.88;3.50;;;15.10;99.90;;;;;;5070761;28;20720;-81
2023/08/14 02:43:00;;;;;;;5.82;3.60;;;15.10;99.90;;;;;;5070565;28;20040;-79
2023/08/14 02:45:26;;;;;;;3.78;3.25;;;15.50;99.90;;;;;;5071232;28;20115;-81
2023/08/14 02:47:51;;;;;;;4.00;2.88;;;15.10;99.90;;;;;;5070267;28;20116;-80
2023/08/14 02:50:17;;;;;;;5.78;3.65;;;15.10;99.90;;;;;;5070111;28;20102;-80
2023/08/14 02:52:43;;;;;;;3.80;3.47;;;16.00;99.90;;;;;;5069473;28;20106;-79
2023/08/14 02:55:08;;;;;;;7.88;3.80;;;15.00;99.90;;;;;;5070881;28;20055;-80
2023/08/14 02:57:34;;;;;;;4.13;3.00;;;15.40;99.90;;;;;;5070564;28;20123;-79
2023/08/14 03:00:00;;;;;;;3.58;3.28;;;15.00;99.90;;;;;;5070279;28;20496;-80
2023/08/14 03:02:25;;;;;;;7.28;3.95;;;15.10;99.90;;;;;;5070662;28;20036;-79
2023/08/14 03:04:51;;;;;;;4.05;3.60;;;15.00;99.90;;;;;;5068650;28;20131;-80
2023/08/14 03:07:16;;;;;;;7.32;4.07;;;15.00;99.90;;;;;;5070510;28;20127;-80
2023/08/14 03:09:42;;;;;;;5.25;3.72;;;15.00;99.90;;;;;;5069459;28;20087;-79
2023/08/14 03:12:08;;;;;;;5.55;3.88;;;15.90;99.90;;;;;;5070026;28;20115;-80
2023/08/14 03:14:33;;;;;;;8.10;4.38;;;15.00;99.90;;;;;;5052034;28;20071;-80
2023/08/14 03:16:59;;;;;;;5.50;5.00;;;16.20;99.90;;;;;;5069394;28;20058;-79
2023/08/14 03:19:24;;;;;;;5.72;4.70;;;15.00;99.90;;;;;;5068676;28;20037;-80
2023/08/14 03:21:52;;;;;;;8.10;5.05;;;15.70;99.90;;;;;;5069450;28;20044;-80
2023/08/14 03:24:17;;;;;;;7.38;4.55;;;14.90;99.90;;;;;;5069425;28;20095;-81
2023/08/14 03:26:43;;;;;;;9.48;4.82;;;14.90;99.90;;;;;;5069982;28;20068;-79
2023/08/14 03:29:09;;;;;;;6.63;4.63;;;14.90;99.90;;;;;;5069770;28;20072;-80
2023/08/14 03:31:34;;;;;;;6.35;4.40;;;15.00;99.90;;;;;;5067567;28;20540;-80
2023/08/14 03:34:00;;;;;;;7.13;4.28;;;14.90;99.90;;;;;;5069808;28;20036;-81
2023/08/14 03:36:26;;;;;;;5.45;4.95;;;14.90;99.90;;;;;;5052331;28;20369;-80
2023/08/14 03:38:51;;;;;;;5.13;4.63;;;14.90;99.90;;;;;;5068731;28;20085;-80
2023/08/14 03:41:19;;;;;;;5.45;4.43;;;14.90;99.90;;;;;;5070113;28;20119;-80
2023/08/14 03:43:45;;;;;;;6.50;4.78;;;15.90;99.90;;;;;;5069478;28;20055;-79
2023/08/14 03:46:11;;;;;;;6.53;4.32;;;14.90;99.90;;;;;;5069759;28;20496;-81
2023/08/14 03:48:37;;;;;;;5.75;4.60;;;14.90;99.90;;;;;;5069229;28;20041;-81
2023/08/14 03:51:03;;;;;;;5.85;4.97;;;15.00;99.90;;;;;;5068316;28;20044;-80
2023/08/14 03:53:29;;;;;;;6.45;5.05;;;15.00;99.90;;;;;;5069199;28;20033;-81
2023/08/14 03:55:54;;;;;;;9.35;5.88;;;14.90;99.90;;;;;;5069499;28;20036;-79
2023/08/14 03:58:20;;;;;;;8.40;5.97;;;14.80;99.90;;;;;;5069908;28;20044;-79
2023/08/14 04:00:49;;;;;;;8.35;6.00;;;15.00;99.90;;;;;;5067957;28;20032;-79
2023/08/14 04:03:14;;;;;;;7.80;5.85;;;14.90;99.90;;;;;;5069477;28;20377;-81
2023/08/14 04:05:41;;;;;;;10.15;6.30;;;14.80;99.90;;;;;;5069259;28;20052;-79
2023/08/14 04:08:07;;;;;;;7.05;6.18;;;14.80;99.90;;;;;;5069108;28;20037;-80
2023/08/14 04:10:33;;;;;;;7.55;5.85;;;14.90;99.90;;;;;;5070763;28;20056;-80
2023/08/14 04:12:59;;;;;;;9.82;6.40;;;14.90;99.90;;;;;;5071231;28;20131;-80
2023/08/14 04:15:25;;;;;;;10.68;6.50;;;14.90;99.90;;;;;;5078720;28;20090;-80
2023/08/14 04:17:51;;;;;;;8.60;6.10;;;14.90;99.90;;;;;;5079413;28;20119;-80
2023/08/14 04:20:16;;;;;;;13.18;6.70;;;14.90;99.90;;;;;;5071395;28;20036;-80
2023/08/14 04:22:42;;;;;;;10.35;5.82;;;15.10;99.90;;;;;;5071148;28;20466;-80
2023/08/14 04:25:08;;;;;;;8.82;6.53;;;14.90;99.90;;;;;;5069815;28;20116;-81
2023/08/14 04:27:38;;;;;;;11.55;5.88;;;14.90;99.90;;;;;;5069134;28;20119;-80
2023/08/14 04:30:05;;;;;;;8.43;6.28;;;14.90;99.90;;;;;;5068428;28;20057;-81
2023/08/14 04:32:32;;;;;;;8.63;5.80;;;14.90;99.90;;;;;;5068789;28;20420;-80
2023/08/14 04:34:58;;;;;;;10.88;7.32;;;14.90;99.90;;;;;;5069777;28;20037;-80
2023/08/14 04:37:23;;;;;;;9.30;6.90;;;15.00;99.90;;;;;;5070348;28;20182;-82
2023/08/14 04:39:49;;;;;;;13.45;7.03;;;16.10;99.90;;;;;;5069056;28;20139;-79
2023/08/14 04:42:15;;;;;;;6.55;5.75;;;14.90;99.90;;;;;;5069667;28;20111;-79
2023/08/14 04:44:40;;;;;;;8.38;6.10;;;14.90;99.90;;;;;;5070151;28;20036;-81
2023/08/14 04:47:06;;;;;;;10.57;7.18;;;15.10;99.90;;;;;;5070840;28;20040;-80
2023/08/14 04:49:32;;;;;;;11.30;6.03;;;15.00;99.90;;;;;;5068618;28;20501;-79
2023/08/14 04:51:57;;;;;;;8.98;6.25;;;15.00;99.90;;;;;;5068821;28;20036;-80
2023/08/14 04:54:23;;;;;;;10.23;6.72;;;15.00;99.90;;;;;;5069620;28;20122;-80
2023/08/14 04:56:49;;;;;;;9.32;6.80;;;15.00;99.90;;;;;;5068644;28;20043;-80
2023/08/14 04:59:14;;;;;;;11.50;7.15;;;15.10;99.90;;;;;;5069463;28;20547;-81
2023/08/14 05:01:40;;;;;;;10.98;6.72;;;15.20;99.90;;;;;;5069423;28;20040;-80
2023/08/14 05:04:06;;;;;;;9.40;7.00;;;15.60;99.90;;;;;;5068361;28;20139;-79
2023/08/14 05:06:32;;;;;;;11.75;6.85;;;15.10;99.90;;;;;;5068817;28;20650;-80
2023/08/14 05:08:58;;;;;;;11.52;7.03;;;15.10;99.90;;;;;;5069158;28;20079;-81
2023/08/14 05:11:24;;;;;;;11.07;6.75;;;15.20;99.90;;;;;;5069771;28;20076;-82
2023/08/14 05:13:50;;;;;;;15.27;7.55;;;15.20;99.90;;;;;;5069116;28;20503;-84
2023/08/14 05:16:17;;;;;;;11.40;7.50;;;15.20;99.90;;;;;;5069878;28;20040;-80
2023/08/14 05:18:42;;;;;;;9.82;7.20;;;15.20;99.90;;;;;;5069454;28;20041;-82
2023/08/14 05:21:08;;;;;;;10.45;7.53;;;15.20;99.90;;;;;;5069615;28;20040;-81
2023/08/14 05:23:34;;;;;;;12.80;7.30;;;15.30;99.90;;;;;;5069539;28;20606;-81
2023/08/14 05:25:59;;;;;;;13.63;8.02;;;15.30;99.90;;;;;;5070239;28;20044;-81
2023/08/14 05:28:25;;;;;;;12.55;7.25;;;15.30;99.90;;;;;;5051686;28;20106;-82
2023/08/14 05:30:51;;;;;;;11.73;7.43;;;16.20;99.90;;;;;;5067483;28;20051;-80
2023/08/14 05:33:16;;;;;;;8.13;7.30;;;15.40;99.90;;;;;;5070227;28;20033;-79
2023/08/14 05:35:42;;;;;;;10.55;7.45;;;16.00;99.90;;;;;;5068939;28;20055;-80
2023/08/14 05:38:07;;;;;;;11.68;6.97;;;15.40;99.90;;;;;;5066856;28;20036;-79
2023/08/14 05:40:33;;;;;;;16.90;8.13;;;15.50;99.90;;;;;;5067083;28;20493;-80
2023/08/14 05:43:07;;;;;;;8.68;7.88;;;15.60;99.90;;;;;;5069028;28;20040;-82
2023/08/14 05:45:42;;;;;;;10.73;7.82;;;15.50;99.90;;;;;;5072142;28;20387;-80
2023/08/14 05:48:09;;;;;;;11.10;7.47;;;15.50;99.90;;;;;;5072705;28;20419;-80
2023/08/14 05:50:35;;;;;;;14.52;7.60;;;15.60;99.90;;;;;;5072170;28;20120;-80
2023/08/14 05:53:03;;;;;;;12.05;7.00;;;15.60;99.90;;;;;;5070398;28;20488;-80
2023/08/14 05:55:39;;;;;;;16.00;7.65;;;15.60;99.90;;;;;;5073549;28;20053;-79
2023/08/14 05:58:06;;;;;;;10.90;7.45;;;15.60;99.90;;;;;;5078797;28;20357;-80
2023/08/14 06:00:32;;;;;;;9.80;7.05;;;15.70;99.90;;;;;;5080699;28;20055;-81
2023/08/14 06:02:58;;;;;;;12.13;7.90;;;15.70;99.90;;;;;;5074477;28;20036;-81
2023/08/14 06:05:24;;;;;;;15.23;7.47;;;15.80;99.90;;;;;;5073161;28;20036;-81
2023/08/14 06:07:50;;;;;;;11.93;7.25;;;16.00;99.90;;;;;;5071136;28;20037;-80
2023/08/14 06:10:16;;;;;;;11.05;7.88;;;15.80;99.90;;;;;;5071962;28;20500;-80
2023/08/14 06:12:44;;;;;;;10.77;7.22;;;15.80;99.90;;;;;;5057243;28;20041;-79
2023/08/14 06:15:13;;;;;;;13.00;8.02;;;15.90;99.90;;;;;;5062821;28;20112;-78
2023/08/14 06:17:39;;;;;;;11.98;8.35;;;15.90;99.90;;;;;;5065680;28;20048;-79
2023/08/14 06:20:06;;;;;;;11.60;7.43;;;15.90;99.90;;;;;;5072435;28;20036;-79
2023/08/14 06:22:31;;;;;;;12.63;7.38;;;16.00;99.90;;;;;;5072315;28;20032;-78
2023/08/14 06:24:57;;;;;;;10.77;6.68;;;16.00;99.90;;;;;;5072217;28;20432;-80
2023/08/14 06:27:23;;;;;;;13.55;7.35;;;16.10;99.90;;;;;;5070701;28;20090;-77
2023/08/14 06:29:48;;;;;;;9.00;7.18;;;16.80;99.90;;;;;;5071952;28;20060;-78
2023/08/14 06:32:14;;;;;;;13.95;7.05;;;16.30;99.90;;;;;;5069950;28;20076;-79
2023/08/14 06:34:42;;;;;;;16.05;7.32;;;16.20;99.90;;;;;;5073051;28;20083;-78
2023/08/14 06:37:07;;;;;;;10.93;7.13;;;16.30;99.90;;;;;;5083035;28;20068;-78
2023/08/14 06:39:33;;;;;;;11.43;7.35;;;16.90;99.90;;;;;;5071593;28;20033;-80
2023/08/14 06:41:58;;;;;;;11.88;7.35;;;16.30;99.90;;;;;;5071345;28;20515;-79
2023/08/14 06:44:24;;;;;;;12.10;7.38;;;16.40;99.90;;;;;;5071950;28;20045;-79
2023/08/14 06:46:50;;;;;;;10.15;6.75;;;16.40;99.90;;;;;;5071058;28;20490;-80
2023/08/14 06:49:15;;;;;;;13.07;7.03;;;16.50;99.90;;;;;;5058983;28;20511;-79
2023/08/14 06:51:41;;;;;;;13.10;7.38;;;16.50;99.90;;;;;;5055233;28;20102;-79
2023/08/14 06:54:06;;;;;;;15.75;14.10;;;16.50;99.90;;;;;;5070316;28;20040;-79
2023/08/14 06:56:32;;;;;;;16.55;10.98;;;16.50;99.90;;;;;;5062425;28;20484;-79
2023/08/14 06:58:58;;;;;;;37.47;26.65;;;16.50;99.90;;;;;;5065552;28;20392;-79
2023/08/14 07:01:24;;;;;;;12.65;7.95;;;16.60;99.90;;;;;;5067671;28;20055;-78
2023/08/14 07:03:50;;;;;;;12.45;6.97;;;16.60;99.90;;;;;;5059079;28;20582;-79
2023/08/14 07:06:15;;;;;;;11.68;6.88;;;16.70;99.90;;;;;;5061197;28;20036;-79
2023/08/14 07:08:41;;;;;;;15.68;7.20;;;16.70;99.90;;;;;;5061186;28;20450;-80
2023/08/14 07:11:07;;;;;;;14.82;7.82;;;16.70;99.90;;;;;;5061216;28;20067;-82
2023/08/14 07:13:32;;;;;;;13.88;6.97;;;16.80;99.90;;;;;;5072989;28;20407;-82
2023/08/14 07:15:58;;;;;;;14.30;7.78;;;16.90;99.90;;;;;;5075680;28;20016;-81
2023/08/14 07:18:24;;;;;;;9.32;6.78;;;17.50;99.90;;;;;;5074969;28;20040;-83
2023/08/14 07:20:50;;;;;;;10.93;6.60;;;16.90;99.90;;;;;;5068227;28;20032;-83
2023/08/14 07:23:17;;;;;;;14.55;7.32;;;17.70;99.90;;;;;;5070073;28;20048;-82
2023/08/14 07:25:42;;;;;;;12.70;6.75;;;17.20;99.90;;;;;;5067307;28;20397;-85
2023/08/14 07:28:08;;;;;;;13.38;7.18;;;17.10;99.90;;;;;;5061670;28;20056;-81
2023/08/14 07:30:35;;;;;;;10.63;6.93;;;17.10;99.90;;;;;;5060764;28;20043;-82
2023/08/14 07:33:00;;;;;;;14.55;7.10;;;17.20;99.90;;;;;;5062439;28;20040;-83
2023/08/14 07:35:26;;;;;;;13.25;7.00;;;17.30;99.90;;;;;;5076962;28;20098;-83
2023/08/14 07:37:52;;;;;;;11.30;6.72;;;17.40;99.90;;;;;;5060422;28;20051;-81
2023/08/14 07:40:18;;;;;;;9.30;5.85;;;17.40;99.90;;;;;;5075615;28;20096;-82
2023/08/14 07:42:44;;;;;;;14.30;7.07;;;17.40;99.90;;;;;;5077716;28;20068;-80
2023/08/14 07:45:09;;;;;;;28.20;19.02;;;17.50;99.90;;;;;;5070873;28;20106;-81
2023/08/14 07:47:35;;;;;;;11.95;6.95;;;17.60;99.90;;;;;;5069348;28;20048;-80
2023/08/14 07:50:01;;;;;;;11.40;6.07;;;17.60;99.90;;;;;;5068886;28;20044;-82
2023/08/14 07:52:30;;;;;;;11.68;6.53;;;17.70;99.90;;;;;;5060715;28;20036;-82
2023/08/14 07:54:57;;;;;;;9.95;5.78;;;17.70;99.90;;;;;;5072532;28;20044;-81
2023/08/14 07:57:23;;;;;;;9.27;5.55;;;18.60;99.90;;;;;;5068988;28;20415;-82
2023/08/14 07:59:49;;;;;;;12.27;6.15;;;17.80;99.90;;;;;;5066843;28;20379;-82
2023/08/14 08:02:15;;;;;;;14.23;7.20;;;17.80;99.90;;;;;;5070481;28;20044;-82
2023/08/14 08:04:41;;;;;;;12.57;5.85;;;17.80;99.90;;;;;;5066830;28;20154;-81
2023/08/14 08:07:07;;;;;;;11.38;6.28;;;17.80;99.90;;;;;;5067093;28;20049;-83
2023/08/14 08:09:32;;;;;;;11.73;5.82;;;17.90;99.90;;;;;;5068807;28;20036;-82
2023/08/14 08:11:58;;;;;;;8.48;5.95;;;17.90;99.90;;;;;;5061880;28;20476;-82
2023/08/14 08:14:26;;;;;;;11.88;6.22;;;17.90;99.90;;;;;;5065407;28;20053;-83
2023/08/14 08:16:51;;;;;;;9.77;6.10;;;17.90;99.90;;;;;;5068980;28;20052;-80
2023/08/14 08:19:17;;;;;;;11.10;5.55;;;18.00;99.90;;;;;;5068357;28;20391;-79
2023/08/14 08:21:43;;;;;;;8.93;5.13;;;18.10;99.90;;;;;;5069384;28;20054;-80
2023/08/14 08:24:08;;;;;;;11.82;5.30;;;18.10;99.90;;;;;;5067708;28;20503;-79
2023/08/14 08:26:35;;;;;;;12.15;5.18;;;18.20;99.90;;;;;;5068667;28;20127;-79
2023/08/14 08:29:01;;;;;;;9.45;5.32;;;18.30;99.90;;;;;;5068802;28;20103;-80
2023/08/14 08:31:26;;;;;;;9.55;5.63;;;18.40;99.90;;;;;;5069822;28;20080;-80
2023/08/14 08:33:52;;;;;;;11.00;4.75;;;18.40;99.90;;;;;;5068108;28;20072;-80
2023/08/14 08:36:18;;;;;;;8.88;4.10;;;18.50;99.90;;;;;;5069430;28;20036;-80
2023/08/14 08:38:44;;;;;;;7.68;4.20;;;18.60;99.90;;;;;;5068386;28;20098;-80
2023/08/14 08:41:12;;;;;;;9.68;3.70;;;18.50;99.90;;;;;;5067408;28;20454;-80
2023/08/14 08:43:39;;;;;;;6.90;3.63;;;18.60;99.90;;;;;;5068851;28;20052;-80
2023/08/14 08:46:09;;;;;;;7.93;2.90;;;18.70;99.90;;;;;;5067950;28;20052;-81
2023/08/14 08:48:37;;;;;;;9.68;3.20;;;18.80;99.90;;;;;;5066817;28;20131;-79
2023/08/14 08:51:04;;;;;;;9.68;3.38;;;18.90;99.90;;;;;;5061021;28;20032;-79
2023/08/14 08:53:30;;;;;;;10.80;3.70;;;18.90;99.90;;;;;;5068976;28;20395;-80
2023/08/14 08:55:57;;;;;;;8.25;3.58;;;19.00;99.90;;;;;;5068477;28;20119;-80
2023/08/14 08:58:25;;;;;;;11.13;2.97;;;19.00;99.90;;;;;;5069153;28;20049;-80
2023/08/14 09:00:54;;;;;;;9.20;2.83;;;19.10;99.90;;;;;;5068360;28;20051;-80
2023/08/14 09:03:20;;;;;;;6.55;2.30;;;19.10;99.90;;;;;;5068372;28;20045;-79
2023/08/14 09:05:46;;;;;;;5.38;1.90;;;19.10;99.90;;;;;;5068031;28;20041;-80
2023/08/14 09:08:12;;;;;;;6.43;1.65;;;19.20;99.90;;;;;;5069088;28;20051;-79
2023/08/14 09:10:38;;;;;;;2.00;1.27;;;19.30;99.90;;;;;;5068103;28;20072;-80
2023/08/14 09:13:04;;;;;;;4.72;1.70;;;19.20;99.90;;;;;;5068558;28;20240;-80
2023/08/14 09:15:30;;;;;;;4.70;1.80;;;19.20;99.90;;;;;;5068605;28;20048;-80
2023/08/14 09:17:55;;;;;;;5.90;1.70;;;19.20;99.90;;;;;;5069551;28;20090;-80
2023/08/14 09:20:22;;;;;;;5.40;2.20;;;19.30;99.90;;;;;;5073503;28;20083;-80
2023/08/14 09:22:48;;;;;;;5.95;2.38;;;19.30;99.90;;;;;;5078678;28;20472;-80
2023/08/14 09:25:15;;;;;;;5.00;1.35;;;19.40;99.90;;;;;;5081567;28;20072;-80
2023/08/14 09:27:44;;;;;;;3.88;1.48;;;19.50;99.90;;;;;;5073887;28;20045;-80
2023/08/14 09:30:12;;;;;;;2.85;1.25;;;19.60;99.90;;;;;;5062611;28;20087;-80
2023/08/14 09:32:38;;;;;;;3.47;1.33;;;19.70;99.90;;;;;;5072337;28;20041;-80
2023/08/14 09:35:04;;;;;;;8.90;1.67;;;19.70;99.90;;;;;;5071986;28;20102;-80
2023/08/14 09:37:30;;;;;;;4.63;1.40;;;19.80;99.90;;;;;;5070469;28;20044;-80
2023/08/14 09:40:14;;;;;;;4.30;1.50;;;19.90;99.90;;;;;;5071897;28;20063;-81
2023/08/14 09:42:41;;;;;;;;;;;20.00;99.90;;;;;;5072426;28;20072;-80
2023/08/14 09:45:07;;;;;;;4.65;1.17;;;20.80;99.90;;;;;;5071506;28;19927;-81
2023/08/14 09:47:34;;;;;;;3.10;1.15;;;20.10;99.90;;;;;;5072134;28;20503;-80
2023/08/14 09:50:00;;;;;;;3.10;1.58;;;20.10;99.90;;;;;;5071701;28;20040;-81
2023/08/14 09:52:26;;;;;;;5.57;1.40;;;20.20;99.90;;;;;;5071577;28;20037;-80
2023/08/14 09:54:53;;;;;;;8.07;1.60;;;20.30;99.90;;;;;;5071507;28;20115;-80
2023/08/14 09:57:20;;;;;;;3.80;1.55;;;20.30;99.90;;;;;;5072245;28;20045;-81
2023/08/14 09:59:46;;;;;;;2.95;0.82;;;20.30;99.90;;;;;;5070391;28;20032;-80
2023/08/14 10:02:15;;;;;;;2.90;1.00;;;20.30;99.90;;;;;;5072172;28;20675;-81
2023/08/14 10:04:45;;;;;;;2.80;1.00;;;20.40;99.90;;;;;;5069892;28;20049;-80
2023/08/14 10:07:12;;;;;;;2.60;0.85;;;20.50;99.90;;;;;;5071695;28;20036;-80
2023/08/14 10:09:43;;;;;;;3.20;1.10;;;20.50;99.90;;;;;;5071839;28;20119;-80
2023/08/14 10:12:12;;;;;;;2.55;0.90;;;20.60;99.90;;;;;;5070801;28;20071;-80
2023/08/14 10:14:41;;;;;;;2.58;0.93;;;20.70;99.90;;;;;;5071386;28;20041;-81
2023/08/14 10:17:16;;;;;;;4.10;0.75;;;20.80;99.90;;;;;;5071388;28;20044;-81
2023/08/14 10:19:42;;;;;;;2.20;0.90;;;20.90;99.90;;;;;;5070902;28;20072;-80
2023/08/14 10:22:09;;;;;;;3.65;0.90;;;21.00;99.90;;;;;;5071507;28;20074;-81
2023/08/14 10:24:38;;;;;;;1.73;0.82;;;21.00;99.90;;;;;;5069962;28;20123;-81
2023/08/14 10:27:05;;;;;;;9.10;1.02;;;21.10;99.90;;;;;;5070397;28;20036;-81
2023/08/14 10:29:32;;;;;;;1.92;0.63;;;21.10;99.90;;;;;;5070234;28;20041;-80
2023/08/14 10:32:00;;;;;;;2.65;0.70;;;21.20;99.90;;;;;;5071128;28;20068;-81
2023/08/14 10:34:26;;;;;;;5.70;1.27;;;21.30;99.90;;;;;;5069543;28;20070;-81
2023/08/14 10:36:52;;;;;;;4.95;0.80;;;21.30;99.90;;;;;;5070692;28;20047;-80
2023/08/14 10:39:18;;;;;;;4.07;0.50;;;21.30;99.90;;;;;;5070187;28;20036;-81
2023/08/14 10:41:44;;;;;;;1.42;0.55;;;21.40;99.90;;;;;;5069119;28;20051;-81
2023/08/14 10:44:11;;;;;;;2.95;0.75;;;21.50;99.90;;;;;;5070943;28;20043;-81
2023/08/14 10:46:44;;;;;;;1.63;0.75;;;21.40;99.90;;;;;;5070843;28;20078;-80
2023/08/14 10:49:13;;;;;;;4.22;1.15;;;21.40;99.90;;;;;;5068781;28;20122;-80
2023/08/14 10:51:42;;;;;;;2.58;1.05;;;21.50;99.90;;;;;;5070836;28;20040;-81
2023/08/14 10:54:15;;;;;;;5.00;0.68;;;21.50;99.90;;;;;;5070116;28;20037;-81
2023/08/14 10:56:46;;;;;;;3.25;1.05;;;21.50;99.90;;;;;;5070711;28;20040;-81
2023/08/14 10:59:28;;;;;;;2.63;0.68;;;21.50;99.90;;;;;;5070798;28;20503;-81
2023/08/14 11:02:25;;;;;;;4.47;0.85;;;21.60;99.90;;;;;;5072568;28;20052;-80
2023/08/14 11:05:11;;;;;;;4.10;0.85;;;21.70;99.90;;;;;;5065912;28;20099;-81
2023/08/14 11:07:37;;;;;;;3.30;0.82;;;21.80;99.90;;;;;;5065611;28;20036;-81
2023/08/14 11:10:04;;;;;;;2.78;0.70;;;21.80;99.90;;;;;;5069323;28;20294;-81
2023/08/14 11:12:32;;;;;;;6.18;0.90;;;21.90;99.90;;;;;;5071023;28;20125;-81
2023/08/14 11:14:57;;;;;;;2.13;0.82;;;22.00;99.90;;;;;;5070446;28;20062;-81
2023/08/14 11:17:27;;;;;;;2.72;0.85;;;22.00;99.90;;;;;;5070068;28;20507;-81
2023/08/14 11:19:53;;;;;;;4.90;0.70;;;22.10;99.90;;;;;;5069450;28;20048;-81
2023/08/14 11:22:22;;;;;;;4.35;1.10;;;22.10;99.90;;;;;;5068504;28;20049;-81
2023/08/14 11:24:47;;;;;;;4.93;1.08;;;22.20;99.90;;;;;;5068186;28;20597;-81
2023/08/14 11:27:13;;;;;;;6.10;1.20;;;22.30;99.90;;;;;;5070437;28;20075;-81
2023/08/14 11:29:39;;;;;;;3.10;0.98;;;22.40;99.90;;;;;;5069138;28;20041;-81
2023/08/14 11:32:05;;;;;;;6.68;1.00;;;22.50;99.90;;;;;;5070481;28;20062;-81
2023/08/14 11:34:34;;;;;;;4.63;1.05;;;22.50;99.90;;;;;;5069994;28;20522;-81
2023/08/14 11:37:04;;;;;;;3.13;0.88;;;22.60;99.90;;;;;;5069721;28;20044;-81
2023/08/14 11:39:30;;;;;;;2.97;0.80;;;22.70;99.90;;;;;;5062259;28;20472;-81
2023/08/14 11:41:56;;;;;;;2.10;0.90;;;22.80;99.90;;;;;;5068403;28;20040;-81
2023/08/14 11:44:21;;;;;;;2.90;0.68;;;22.80;99.90;;;;;;5069095;28;20119;-81
2023/08/14 11:46:48;;;;;;;4.22;1.00;;;22.90;99.90;;;;;;5069425;28;20037;-81
2023/08/14 11:49:15;;;;;;;4.72;1.17;;;23.00;99.90;;;;;;5069417;28;20491;-81
2023/08/14 11:51:41;;;;;;;3.05;0.90;;;23.10;99.90;;;;;;5067712;28;20076;-82
2023/08/14 11:54:09;;;;;;;4.03;1.10;;;23.30;99.90;;;;;;5060044;28;20083;-82
2023/08/14 11:56:37;;;;;;;4.25;0.90;;;23.30;99.90;;;;;;5055457;28;20039;-84
2023/08/14 11:59:06;;;;;;;5.88;1.20;;;23.40;99.90;;;;;;5056339;28;20136;-83
2023/08/14 12:01:36;;;;;;;5.22;1.08;;;23.50;99.90;;;;;;5059051;28;20036;-88
2023/08/14 12:04:02;;;;;;;3.45;0.70;;;23.60;99.90;;;;;;5056013;28;20496;-84
2023/08/14 12:06:28;;;;;;;2.60;1.30;;;23.60;99.90;;;;;;5057910;28;20028;-89
2023/08/14 12:08:54;;;;;;;5.38;0.90;;;23.60;99.90;;;;;;5056166;28;20047;-84
2023/08/14 12:11:19;;;;;;;2.97;0.80;;;23.70;99.90;;;;;;5057286;28;20054;-86
2023/08/14 12:13:52;;;;;;;3.67;0.90;;;23.80;99.90;;;;;;5051265;28;20416;-82
2023/08/14 12:16:21;;;;;;;4.40;1.13;;;23.80;99.90;;;;;;5059698;28;20048;-83
2023/08/14 12:18:48;;;;;;;3.95;1.00;;;23.90;99.90;;;;;;5058805;28;20039;-83
2023/08/14 12:21:13;;;;;;;4.45;1.98;;;24.00;99.90;;;;;;5052937;28;20064;-81
2023/08/14 12:23:47;;;;;;;8.25;4.10;;;24.10;99.90;;;;;;5057877;28;20090;-81
2023/08/14 12:26:14;;;;;;;4.53;1.67;;;24.30;99.90;;;;;;5056195;28;20052;-81
2023/08/14 12:28:41;;;;;;;2.22;1.08;;;24.20;99.90;;;;;;5067761;28;20044;-80
2023/08/14 12:31:06;;;;;;;7.75;1.65;;;24.10;99.90;;;;;;5064099;28;20036;-81
2023/08/14 12:33:33;;;;;;;2.95;1.25;;;24.10;99.90;;;;;;5057899;28;20093;-81
2023/08/14 12:35:58;;;;;;;4.70;1.15;;;24.00;99.90;;;;;;5062554;28;20562;-83
2023/08/14 12:38:24;;;;;;;4.75;1.02;;;23.90;99.90;;;;;;5061864;28;20123;-84
2023/08/14 12:40:49;;;;;;;6.72;1.08;;;23.80;99.90;;;;;;5057835;28;20041;-82